Time;durP1;ratioP1;P1;durP2;ratioP2;P2;SDS_P1;SDS_P2;PMS_P1;PMS_P2;Temp;Humidity;BMP_temperature;BMP_pressure;BME280_temperature;BME280_humidity;BME280_pressure;Samples;Min_cycle;Max_cycle;Signal;HPM_P1;HPM_P2
2022/11/17 00:01:31;;;;;;;48.93;24.40;;;;;;;;;;5010251;28;20049;-67
2022/11/17 00:03:56;;;;;;;46.50;24.83;;;;;;;;;;5008311;28;20302;-68
2022/11/17 00:06:21;;;;;;;48.33;24.80;;;;;;;;;;5006001;28;20072;-69
2022/11/17 00:08:47;;;;;;;47.73;24.47;;;;;;;;;;5004374;28;20288;-68
2022/11/17 00:11:13;;;;;;;49.58;24.15;;;;;;;;;;4991641;28;20416;-68
2022/11/17 00:16:22;;;;;;;42.63;24.17;;;;;;;;;;5004858;28;20068;-68
2022/11/17 00:21:31;;;;;;;48.95;25.33;;;;;;;;;;5009458;28;20085;-69
2022/11/17 00:23:57;;;;;;;52.90;25.98;;;;;;;;;;5016655;28;20037;-70
2022/11/17 00:26:25;;;;;;;48.83;24.85;;;;;;;;;;5008305;28;20026;-69
2022/11/17 00:28:55;;;;;;;53.95;26.75;;;;;;;;;;5013076;28;20509;-69
2022/11/17 00:34:05;;;;;;;43.65;23.42;;;;;;;;;;5003975;28;20600;-69
2022/11/17 00:36:50;;;;;;;47.28;24.70;;;;;;;;;;4974372;28;20033;-69
2022/11/17 00:39:16;;;;;;;43.63;23.80;;;;;;;;;;4992777;28;20061;-68
2022/11/17 00:41:42;;;;;;;45.67;24.00;;;;;;;;;;5014803;28;20063;-69
2022/11/17 00:44:08;;;;;;;47.85;25.65;;;;;;;;;;5018008;28;20022;-68
2022/11/17 00:46:33;;;;;;;48.97;24.27;;;;;;;;;;4976016;28;20028;-68
2022/11/17 00:48:59;;;;;;;46.38;23.80;;;;;;;;;;5010719;28;20029;-68
2022/11/17 00:51:24;;;;;;;46.27;23.00;;;;;;;;;;4993631;28;20018;-68
2022/11/17 00:53:50;;;;;;;48.47;24.60;;;;;;;;;;5006898;28;20038;-68
2022/11/17 00:56:15;;;;;;;45.97;24.27;;;;;;;;;;5014907;28;20035;-68
2022/11/17 00:58:40;;;;;;;42.60;23.80;;;;;;;;;;5011351;28;20026;-68
2022/11/17 01:01:05;;;;;;;43.37;23.50;;;;;;;;;;5017750;28;20407;-68
2022/11/17 01:03:32;;;;;;;48.13;24.50;;;;;;;;;;5012545;28;20354;-67
2022/11/17 01:06:04;;;;;;;46.00;23.42;;;;;;;;;;5022236;28;20041;-67
2022/11/17 01:08:29;;;;;;;44.50;23.08;;;;;;;;;;5024999;28;20034;-68
2022/11/17 01:10:54;;;;;;;50.63;24.73;;;;;;;;;;5022674;28;20030;-66
2022/11/17 01:13:19;;;;;;;49.38;25.42;;;;;;;;;;5022930;28;20282;-67
2022/11/17 01:15:45;;;;;;;52.37;26.30;;;;;;;;;;5020046;28;20472;-69
2022/11/17 01:18:10;;;;;;;50.73;25.90;;;;;;;;;;5005210;28;20034;-68
2022/11/17 01:20:35;;;;;;;54.07;25.40;;;;;;;;;;5010900;28;20316;-68
2022/11/17 01:23:00;;;;;;;52.93;26.30;;;;;;;;;;5007088;28;20040;-69
2022/11/17 01:25:26;;;;;;;53.23;25.63;;;;;;;;;;5010656;28;20026;-68
2022/11/17 01:27:51;;;;;;;49.27;26.37;;;;;;;;;;5009119;28;20456;-69
2022/11/17 01:30:17;;;;;;;53.90;27.20;;;;;;;;;;5007317;28;20120;-69
2022/11/17 01:32:42;;;;;;;58.42;27.90;;;;;;;;;;5013243;28;20050;-69
2022/11/17 01:35:07;;;;;;;53.13;26.00;;;;;;;;;;5010830;28;20026;-68
2022/11/17 01:37:32;;;;;;;53.97;26.88;;;;;;;;;;5010587;28;20036;-69
2022/11/17 01:39:58;;;;;;;53.73;28.33;;;;;;;;;;5010887;28;20049;-68
2022/11/17 01:42:24;;;;;;;55.63;26.60;;;;;;;;;;5012667;28;20366;-69
2022/11/17 01:44:56;;;;;;;58.35;28.05;;;;;;;;;;5011776;28;20510;-68
2022/11/17 01:47:24;;;;;;;57.08;27.75;;;;;;;;;;5010977;28;20033;-68
2022/11/17 01:49:51;;;;;;;51.92;27.10;;;;;;;;;;5005858;28;20026;-68
2022/11/17 01:52:16;;;;;;;51.60;27.17;;;;;;;;;;5014579;28;20053;-70
2022/11/17 01:54:42;;;;;;;48.65;26.13;;;;;;;;;;5010550;28;20064;-68
2022/11/17 01:57:10;;;;;;;51.30;25.40;;;;;;;;;;5009797;28;20539;-69
2022/11/17 01:59:39;;;;;;;52.95;25.60;;;;;;;;;;5013085;28;20570;-68
2022/11/17 02:02:04;;;;;;;47.92;24.80;;;;;;;;;;5008541;28;20050;-68
2022/11/17 02:04:32;;;;;;;44.40;22.70;;;;;;;;;;5010664;28;20029;-68
2022/11/17 02:07:16;;;;;;;42.25;22.58;;;;;;;;;;5012440;28;20072;-68
2022/11/17 02:09:41;;;;;;;43.88;22.73;;;;;;;;;;5010265;28;20030;-69
2022/11/17 02:12:08;;;;;;;47.53;23.65;;;;;;;;;;5009090;28;20026;-69
2022/11/17 02:14:34;;;;;;;46.92;24.13;;;;;;;;;;5004738;28;20041;-68
2022/11/17 02:17:00;;;;;;;45.28;23.00;;;;;;;;;;5009375;28;20029;-69
2022/11/17 02:19:28;;;;;;;44.40;22.92;;;;;;;;;;5007646;28;20034;-68
2022/11/17 02:22:12;;;;;;;47.65;23.85;;;;;;;;;;5008654;28;20033;-68
2022/11/17 02:24:43;;;;;;;42.25;22.80;;;;;;;;;;5005603;28;20034;-69
2022/11/17 02:27:18;;;;;;;44.17;22.95;;;;;;;;;;4991321;28;20034;-68
2022/11/17 02:29:46;;;;;;;41.15;21.33;;;;;;;;;;5011499;28;20628;-68
2022/11/17 02:32:17;;;;;;;34.63;20.50;;;;;;;;;;5005927;28;20433;-68
2022/11/17 02:34:42;;;;;;;34.88;19.90;;;;;;;;;;4990604;28;20032;-69
2022/11/17 02:37:23;;;;;;;30.50;17.93;;;;;;;;;;5009099;28;20030;-68
2022/11/17 02:39:48;;;;;;;26.67;15.40;;;;;;;;;;5010597;28;20040;-68
2022/11/17 02:42:18;;;;;;;23.13;14.47;;;;;;;;;;5005446;28;20484;-68
2022/11/17 02:44:51;;;;;;;23.83;14.23;;;;;;;;;;4987426;28;20040;-68
2022/11/17 02:47:21;;;;;;;23.05;14.10;;;;;;;;;;5010232;28;20069;-68
2022/11/17 02:49:52;;;;;;;27.02;14.10;;;;;;;;;;5011707;28;20045;-68
2022/11/17 02:52:17;;;;;;;23.85;13.98;;;;;;;;;;5004630;28;20037;-69
2022/11/17 02:54:43;;;;;;;21.65;13.50;;;;;;;;;;5008224;28;20040;-69
2022/11/17 02:57:34;;;;;;;23.23;13.63;;;;;;;;;;5002782;28;20133;-70
2022/11/17 03:00:04;;;;;;;23.50;13.45;;;;;;;;;;5003174;28;20065;-68
2022/11/17 03:02:35;;;;;;;28.92;16.02;;;;;;;;;;5010720;28;20522;-69
2022/11/17 03:05:03;;;;;;;33.13;17.23;;;;;;;;;;5004990;28;20380;-69
2022/11/17 03:07:47;;;;;;;34.25;18.90;;;;;;;;;;5011091;28;20030;-67
2022/11/17 03:10:16;;;;;;;38.88;19.15;;;;;;;;;;5013547;28;20026;-68
2022/11/17 03:12:44;;;;;;;38.73;19.33;;;;;;;;;;5009329;28;20022;-69
2022/11/17 03:15:12;;;;;;;38.55;20.42;;;;;;;;;;5011017;28;20021;-68
2022/11/17 03:17:58;;;;;;;40.90;20.52;;;;;;;;;;5007972;28;20543;-69
2022/11/17 03:20:31;;;;;;;35.22;18.90;;;;;;;;;;5009881;28;20033;-67
2022/11/17 03:22:59;;;;;;;39.40;19.67;;;;;;;;;;5009952;28;20423;-68
2022/11/17 03:25:26;;;;;;;38.25;19.33;;;;;;;;;;4987314;28;20014;-68
2022/11/17 03:27:53;;;;;;;35.55;17.75;;;;;;;;;;4993743;28;20088;-69
2022/11/17 03:30:21;;;;;;;35.05;19.10;;;;;;;;;;5009241;28;20105;-68
2022/11/17 03:32:48;;;;;;;34.00;18.00;;;;;;;;;;5005538;28;20056;-68
2022/11/17 03:35:16;;;;;;;33.70;17.83;;;;;;;;;;5014647;28;20052;-68
2022/11/17 03:37:44;;;;;;;29.55;15.95;;;;;;;;;;5006584;28;20022;-68
2022/11/17 03:40:11;;;;;;;28.30;16.42;;;;;;;;;;4990723;28;20092;-68
2022/11/17 03:42:38;;;;;;;30.38;16.02;;;;;;;;;;5009082;28;20057;-68
2022/11/17 03:45:03;;;;;;;29.92;14.75;;;;;;;;;;5003760;28;20029;-68
2022/11/17 03:47:29;;;;;;;24.48;14.27;;;;;;;;;;5009466;28;20424;-69
2022/11/17 03:50:04;;;;;;;25.05;14.05;;;;;;;;;;4992739;28;20490;-68
2022/11/17 03:52:29;;;;;;;22.50;13.00;;;;;;;;;;5010879;28;20104;-67
2022/11/17 03:54:55;;;;;;;22.35;12.52;;;;;;;;;;5017623;28;20061;-69
2022/11/17 03:57:32;;;;;;;21.70;13.18;;;;;;;;;;5030293;28;20053;-68
2022/11/17 04:00:03;;;;;;;22.20;12.68;;;;;;;;;;5024826;28;20030;-69
2022/11/17 04:02:28;;;;;;;21.13;12.40;;;;;;;;;;5022824;28;20049;-69
2022/11/17 04:05:06;;;;;;;18.45;11.18;;;;;;;;;;5026134;28;20030;-69
2022/11/17 04:07:41;;;;;;;17.25;11.00;;;;;;;;;;5015127;28;20026;-70
2022/11/17 04:10:11;;;;;;;16.80;10.73;;;;;;;;;;5014963;28;20487;-68
2022/11/17 04:18:04;;;;;;;16.05;9.73;;;;;;;;;;5011850;28;20041;-70
2022/11/17 04:20:34;;;;;;;15.70;9.73;;;;;;;;;;5011796;28;20400;-69
2022/11/17 04:23:10;;;;;;;13.10;9.10;;;;;;;;;;5012700;28;20041;-69
2022/11/17 04:28:37;;;;;;;15.38;10.35;;;;;;;;;;5015212;28;20037;-69
2022/11/17 04:31:12;;;;;;;14.00;9.30;;;;;;;;;;4994325;28;20372;-69
2022/11/17 04:33:39;;;;;;;15.73;11.35;;;;;;;;;;5009205;28;20475;-70
2022/11/17 04:36:04;;;;;;;14.05;10.05;;;;;;;;;;5015917;28;20484;-70
2022/11/17 04:38:30;;;;;;;13.88;10.07;;;;;;;;;;5008168;28;20033;-69
2022/11/17 04:43:46;;;;;;;15.82;10.23;;;;;;;;;;5007811;28;20036;-69
2022/11/17 04:46:12;;;;;;;18.25;11.98;;;;;;;;;;5017530;28;20386;-69
2022/11/17 04:48:37;;;;;;;20.50;13.47;;;;;;;;;;5010167;28;20034;-70
2022/11/17 04:51:02;;;;;;;21.53;13.67;;;;;;;;;;5011598;28;20034;-69
2022/11/17 04:53:28;;;;;;;21.02;13.02;;;;;;;;;;5011583;28;20112;-68
2022/11/17 04:55:57;;;;;;;19.08;12.75;;;;;;;;;;4992808;28;20057;-68
2022/11/17 04:58:23;;;;;;;19.95;12.10;;;;;;;;;;5012526;28;20108;-68
2022/11/17 05:00:48;;;;;;;20.90;13.23;;;;;;;;;;4992595;28;20104;-68
2022/11/17 05:03:13;;;;;;;22.70;12.73;;;;;;;;;;5009558;28;20054;-69
2022/11/17 05:05:43;;;;;;;26.55;14.88;;;;;;;;;;5012296;28;20045;-69
2022/11/17 05:08:08;;;;;;;26.98;14.40;;;;;;;;;;5006282;28;20021;-69
2022/11/17 05:13:26;;;;;;;23.13;12.88;;;;;;;;;;5006581;28;20153;-69
2022/11/17 05:18:36;;;;;;;28.65;14.40;;;;;;;;;;5006696;28;20151;-67
2022/11/17 05:21:02;;;;;;;24.33;14.13;;;;;;;;;;5010391;28;20070;-67
2022/11/17 05:26:12;;;;;;;31.35;16.00;;;;;;;;;;5010136;28;20539;-69
2022/11/17 05:28:37;;;;;;;26.73;15.13;;;;;;;;;;4988579;28;20042;-69
2022/11/17 05:31:02;;;;;;;27.08;15.82;;;;;;;;;;5008163;28;20038;-68
2022/11/17 05:33:27;;;;;;;29.67;15.70;;;;;;;;;;5010714;28;20125;-68
2022/11/17 05:35:53;;;;;;;32.30;17.07;;;;;;;;;;5010207;28;20433;-68
2022/11/17 05:38:18;;;;;;;37.33;17.87;;;;;;;;;;5012758;28;20291;-68
2022/11/17 05:40:43;;;;;;;34.30;18.20;;;;;;;9.52;nan;99043.19;5008453;28;20030;-67
2022/11/17 05:43:08;;;;;;;34.70;17.38;;;;;;;;;;5009459;28;20104;-68
2022/11/17 05:45:34;;;;;;;34.83;16.93;;;;;;;;;;5005273;28;20535;-67
2022/11/17 05:47:59;;;;;;;34.17;16.80;;;;;;;;;;5009250;28;20358;-67
2022/11/17 05:50:24;;;;;;;33.97;18.73;;;;;;;;;;5004689;28;20029;-68
2022/11/17 05:52:49;;;;;;;36.53;18.30;;;;;;;;;;5011685;28;20625;-68
2022/11/17 05:55:14;;;;;;;36.53;20.43;;;;;;;;;;5007765;28;20424;-67
2022/11/17 05:57:40;;;;;;;36.63;18.97;;;;;;;;;;5012666;28;20137;-68
2022/11/17 06:00:06;;;;;;;39.08;19.52;;;;;;;;;;5000878;28;20043;-69
2022/11/17 06:02:35;;;;;;;40.03;19.38;;;;;;;;;;4989963;28;20054;-68
2022/11/17 06:05:01;;;;;;;39.67;18.67;;;;;;;;;;5008438;28;20025;-69
2022/11/17 06:07:26;;;;;;;39.20;19.40;;;;;;;;;;4996960;28;20125;-69
2022/11/17 06:09:52;;;;;;;40.42;20.20;;;;;;;;;;5013929;28;20057;-68
2022/11/17 06:12:17;;;;;;;45.42;20.70;;;;;;;;;;4991997;28;20037;-68
2022/11/17 06:14:42;;;;;;;41.70;21.08;;;;;;;;;;5009368;28;20133;-68
2022/11/17 06:17:16;;;;;;;39.03;20.83;;;;;;;;;;5004115;28;20034;-68
2022/11/17 06:19:44;;;;;;;41.22;20.70;;;;;;;;;;5009022;28;20423;-68
2022/11/17 06:22:09;;;;;;;38.53;19.98;;;;;;;;;;4987597;28;20040;-68
2022/11/17 06:24:35;;;;;;;39.45;19.85;;;;;;;;;;5000656;28;20388;-69
2022/11/17 06:27:00;;;;;;;42.35;20.40;;;;;;;;;;5004771;28;20030;-68
2022/11/17 06:29:27;;;;;;;36.50;19.07;;;;;;;;;;5007869;28;20038;-67
2022/11/17 06:31:55;;;;;;;39.55;19.17;;;;;;;;;;5013876;28;20032;-68
2022/11/17 06:34:20;;;;;;;39.67;19.48;;;;;;;;;;5008946;28;20029;-68
2022/11/17 06:36:45;;;;;;;40.37;20.40;;;;;;;;;;5007574;28;20503;-67
2022/11/17 06:39:10;;;;;;;37.73;20.50;;;;;;;;;;5007906;28;20071;-67
2022/11/17 06:41:36;;;;;;;36.67;18.77;;;;;;;;;;4996714;28;20037;-68
2022/11/17 06:44:01;;;;;;;33.67;17.75;;;;;;;;;;5014375;28;20053;-66
2022/11/17 06:46:36;;;;;;;37.20;19.85;;;;;;;;;;4998815;28;20026;-66
2022/11/17 06:49:03;;;;;;;33.00;18.98;;;;;;;;;;5032387;28;20037;-67
2022/11/17 06:51:28;;;;;;;32.25;18.50;;;;;;;;;;5025886;28;20086;-66
2022/11/17 06:53:53;;;;;;;42.60;19.27;;;;;;;;;;5034723;28;20045;-67
2022/11/17 06:56:18;;;;;;;37.20;19.53;;;;;;;;;;5035298;28;20290;-67
2022/11/17 06:58:44;;;;;;;35.17;18.20;;;;;;;;;;5033407;28;20021;-68
2022/11/17 07:01:11;;;;;;;36.08;19.67;;;;;;;;;;5015576;28;20034;-67
2022/11/17 07:03:37;;;;;;;38.85;19.20;;;;;;;;;;5011676;28;20477;-67
2022/11/17 07:06:03;;;;;;;34.15;19.40;;;;;;;;;;4972913;28;20032;-67
2022/11/17 07:08:29;;;;;;;35.67;18.20;;;;;;;;;;5010281;28;20472;-67
2022/11/17 07:10:54;;;;;;;38.13;18.55;;;;;;;;;;5003856;28;20034;-68
2022/11/17 07:13:21;;;;;;;35.15;19.67;;;;;;;;;;4994002;28;20025;-68
2022/11/17 07:15:48;;;;;;;33.13;18.58;;;;;;;;;;5009572;28;20029;-70
2022/11/17 07:18:13;;;;;;;41.05;19.23;;;;;;;;;;4993106;28;20053;-68
2022/11/17 07:20:38;;;;;;;38.30;19.70;;;;;;;;;;5007842;28;20030;-70
2022/11/17 07:23:03;;;;;;;33.67;19.00;;;;;;;;;;5007125;28;20116;-70
2022/11/17 07:25:29;;;;;;;40.60;20.17;;;;;;;;;;4993695;28;20021;-70
2022/11/17 07:27:58;;;;;;;38.77;19.43;;;;;;;;;;5007910;28;20038;-69
2022/11/17 07:30:23;;;;;;;33.38;17.85;;;;;;;;;;5005400;28;20069;-69
2022/11/17 07:32:48;;;;;;;37.38;18.83;;;;;;;;;;4991614;28;20065;-69
2022/11/17 07:35:14;;;;;;;38.00;18.60;;;;;;;;;;5007245;28;20085;-70
2022/11/17 07:37:40;;;;;;;37.03;19.35;;;;;;;;;;5009198;28;20026;-70
2022/11/17 07:40:05;;;;;;;38.25;19.52;;;;;;;;;;5006108;28;20415;-68
2022/11/17 07:42:31;;;;;;;40.38;20.70;;;;;;;;;;4988894;28;20045;-69
2022/11/17 07:44:56;;;;;;;35.75;19.02;;;;;;;;;;4987074;28;20054;-70
2022/11/17 07:47:21;;;;;;;39.20;20.08;;;;;;;;;;5004102;28;20029;-70
2022/11/17 07:49:47;;;;;;;42.47;20.37;;;;;;;9.21;nan;99233.88;5010632;28;20467;-70
2022/11/17 07:52:12;;;;;;;39.78;20.83;;;;;;;;;;4992796;28;20333;-70
2022/11/17 07:54:37;;;;;;;38.43;20.43;;;;;;;;;;5009312;28;20464;-71
2022/11/17 07:57:03;;;;;;;36.17;20.30;;;;;;;;;;5010316;28;20084;-71
2022/11/17 07:59:28;;;;;;;37.03;20.00;;;;;;;;;;4990837;28;20041;-71
2022/11/17 08:01:53;;;;;;;43.03;21.17;;;;;;;;;;5005047;28;20291;-71
2022/11/17 08:04:19;;;;;;;36.50;20.53;;;;;;;;;;5008194;28;20280;-71
2022/11/17 08:06:44;;;;;;;39.30;21.35;;;;;;;;;;5007904;28;20030;-71
2022/11/17 08:09:12;;;;;;;41.13;21.38;;;;;;;;;;5002955;28;20484;-71
2022/11/17 08:11:37;;;;;;;42.83;19.98;;;;;;;;;;5006916;28;20034;-70
2022/11/17 08:14:02;;;;;;;37.30;20.70;;;;;;;;;;5003482;28;20752;-72
2022/11/17 08:16:29;;;;;;;42.03;20.60;;;;;;;;;;4991002;28;20271;-71
2022/11/17 08:18:56;;;;;;;38.47;20.73;;;;;;;;;;5007713;28;20673;-71
2022/11/17 08:21:22;;;;;;;42.30;19.95;;;;;;;;;;5009401;28;20030;-72
2022/11/17 08:23:51;;;;;;;37.83;20.20;;;;;;;;;;4991495;28;20042;-70
2022/11/17 08:26:17;;;;;;;41.90;20.75;;;;;;;;;;5009208;28;20052;-70
2022/11/17 08:28:42;;;;;;;41.05;20.33;;;;;;;;;;5014598;28;20502;-71
2022/11/17 08:31:08;;;;;;;42.80;20.50;;;;;;;;;;5004872;28;20044;-72
2022/11/17 08:33:33;;;;;;;37.20;18.55;;;;;;;;;;5011150;28;20037;-71
2022/11/17 08:35:59;;;;;;;35.85;19.23;;;;;;;;;;5006000;28;20080;-71
2022/11/17 08:38:28;;;;;;;36.50;19.20;;;;;;;;;;5003681;28;20484;-71
2022/11/17 08:40:57;;;;;;;35.30;17.80;;;;;;;;;;5005606;28;20105;-70
2022/11/17 08:43:22;;;;;;;39.72;19.80;;;;;;;;;;5014858;28;20050;-70
2022/11/17 08:45:47;;;;;;;38.00;19.90;;;;;;;;;;5010974;28;20530;-70
2022/11/17 08:48:12;;;;;;;38.03;19.98;;;;;;;;;;5009772;28;20286;-71
2022/11/17 08:50:38;;;;;;;45.10;21.40;;;;;;;;;;5012967;28;20057;-71
2022/11/17 08:53:03;;;;;;;39.00;20.08;;;;;;;;;;5008859;28;20276;-70
2022/11/17 08:55:28;;;;;;;36.00;19.13;;;;;;;;;;5013708;28;20065;-70
2022/11/17 08:57:53;;;;;;;39.63;19.17;;;;;;;;;;5008895;28;21145;-70
2022/11/17 09:00:20;;;;;;;36.47;18.95;;;;;;;;;;5010442;28;20650;-71
2022/11/17 09:02:45;;;;;;;33.67;18.67;;;;;;;;;;5008513;28;20422;-70
2022/11/17 09:05:11;;;;;;;37.67;19.23;;;;;;;;;;5008412;28;20109;-71
2022/11/17 09:07:36;;;;;;;36.50;18.07;;;;;;;;;;5016541;28;20294;-71
2022/11/17 09:10:03;;;;;;;42.20;19.73;;;;;;;;;;5013470;28;20108;-69
2022/11/17 09:12:28;;;;;;;37.63;18.17;;;;;;;;;;5010661;28;20824;-70
2022/11/17 09:14:53;;;;;;;38.13;19.23;;;;;;;;;;5011159;28;20036;-70
2022/11/17 09:17:18;;;;;;;36.00;19.43;;;;;;;;;;5006392;28;20305;-70
2022/11/17 09:19:44;;;;;;;36.47;18.53;;;;;;;;;;5006923;28;20287;-69
2022/11/17 09:22:09;;;;;;;30.43;16.43;;;;;;;;;;5008435;28;20032;-70
2022/11/17 09:24:34;;;;;;;33.53;17.60;;;;;;;;;;5002931;28;20030;-70
2022/11/17 09:27:01;;;;;;;30.43;16.13;;;;;;;;;;5012576;28;20435;-69
2022/11/17 09:29:27;;;;;;;30.35;17.30;;;;;;;;;;5008626;28;20326;-70
2022/11/17 09:31:52;;;;;;;32.15;17.52;;;;;;;;;;4992503;28;20026;-69
2022/11/17 09:34:17;;;;;;;33.27;18.10;;;;;;;;;;5010281;28;20060;-70
2022/11/17 09:36:43;;;;;;;30.27;16.30;;;;;;;;;;5011919;28;20121;-70
2022/11/17 09:39:08;;;;;;;34.67;18.60;;;;;;;;;;5013937;28;20041;-69
2022/11/17 09:41:44;;;;;;;32.53;17.57;;;;;;;;;;5011508;28;20784;-70
2022/11/17 09:44:29;;;;;;;36.45;18.23;;;;;;;;;;5014636;28;20084;-69
2022/11/17 09:47:12;;;;;;;34.45;18.40;;;;;;;;;;5032495;28;20021;-70
2022/11/17 09:49:40;;;;;;;31.27;17.05;;;;;;;;;;5037182;28;20040;-68
2022/11/17 09:52:12;;;;;;;34.05;17.40;;;;;;;;;;5035405;28;20018;-70
2022/11/17 09:54:47;;;;;;;32.03;16.17;;;;;;;;;;5007208;28;20066;-70
2022/11/17 09:57:39;;;;;;;30.55;15.48;;;;;;;;;;5009064;28;20026;-71
2022/11/17 10:00:04;;;;;;;26.77;14.93;;;;;;;;;;5006757;28;20034;-71
2022/11/17 10:02:30;;;;;;;31.80;16.10;;;;;;;;;;5015268;28;20037;-71
2022/11/17 10:04:55;;;;;;;28.67;15.25;;;;;;;;;;5005563;28;20404;-73
2022/11/17 10:07:21;;;;;;;29.60;15.68;;;;;;;;;;5012866;28;20406;-72
2022/11/17 10:09:49;;;;;;;30.40;15.90;;;;;;;;;;4987755;28;20040;-71
2022/11/17 10:12:14;;;;;;;28.08;16.00;;;;;;;;;;4997692;28;20152;-73
2022/11/17 10:14:39;;;;;;;25.50;14.03;;;;;;;;;;5002245;28;20101;-72
2022/11/17 10:17:05;;;;;;;29.58;15.40;;;;;;;;;;5012948;28;20077;-72
2022/11/17 10:19:31;;;;;;;28.30;15.60;;;;;;;;;;5010232;28;20046;-71
2022/11/17 10:22:10;;;;;;;26.80;14.38;;;;;;;;;;5005322;28;20301;-71
2022/11/17 10:24:43;;;;;;;28.88;15.23;;;;;;;;;;5011078;28;20112;-71
2022/11/17 10:27:18;;;;;;;28.27;14.70;;;;;;;;;;5002067;28;20084;-71
2022/11/17 10:29:57;;;;;;;25.45;13.95;;;;;;;;;;4997784;28;20483;-71
2022/11/17 10:32:22;;;;;;;26.27;14.20;;;;;;;;;;5004564;28;20041;-71
2022/11/17 10:34:47;;;;;;;26.30;13.90;;;;;;;;;;5008519;28;20026;-71
2022/11/17 10:37:12;;;;;;;28.13;13.95;;;;;;;;;;5006403;28;20028;-71
2022/11/17 10:39:39;;;;;;;27.90;14.77;;;;;;;;;;5014403;28;20028;-70
2022/11/17 10:42:17;;;;;;;29.75;15.20;;;;;;;;;;5004221;28;20076;-70
2022/11/17 10:44:43;;;;;;;30.35;15.32;;;;;;;;;;5006391;28;20495;-70
2022/11/17 10:47:26;;;;;;;23.48;13.93;;;;;;;8.69;nan;99301.44;5004416;28;20471;-71
2022/11/17 10:50:10;;;;;;;25.73;14.23;;;;;;;;;;4987825;28;20026;-72
2022/11/17 10:52:35;;;;;;;26.90;13.70;;;;;;;;;;5003215;28;21698;-69
2022/11/17 10:55:19;;;;;;;26.40;14.65;;;;;;;;;;5004209;28;20033;-72
2022/11/17 10:57:50;;;;;;;24.13;13.65;;;;;;;;;;5007204;28;20120;-70
2022/11/17 11:00:23;;;;;;;23.60;13.25;;;;;;;;;;5009694;28;20033;-70
2022/11/17 11:02:48;;;;;;;22.60;12.80;;;;;;;;;;4992273;28;20060;-70
2022/11/17 11:05:15;;;;;;;23.03;12.17;;;;;;;;;;5008156;28;20112;-71
2022/11/17 11:07:40;;;;;;;25.15;13.90;;;;;;;;;;5005061;28;20030;-71
2022/11/17 11:10:06;;;;;;;28.00;13.93;;;;;;;;;;4986562;28;20037;-70
2022/11/17 11:12:40;;;;;;;23.90;13.18;;;;;;;;;;4999408;28;20026;-71
2022/11/17 11:15:12;;;;;;;23.63;13.38;;;;;;;;;;5009829;28;20072;-71
2022/11/17 11:17:38;;;;;;;27.20;13.98;;;;;;;;;;4990349;28;20192;-70
2022/11/17 11:20:03;;;;;;;27.30;13.93;;;;;;;;;;5008487;28;20108;-70
2022/11/17 11:22:41;;;;;;;28.00;14.50;;;;;;;;;;5004662;28;20369;-68
2022/11/17 11:25:24;;;;;;;21.92;12.55;;;;;;;;;;5007263;28;20056;-70
2022/11/17 11:27:56;;;;;;;21.25;12.38;;;;;;;;;;5000006;28;20108;-70
2022/11/17 11:30:21;;;;;;;22.73;12.88;;;;;;;;;;5005228;28;20114;-71
2022/11/17 11:32:55;;;;;;;21.50;11.95;;;;;;;;;;5000660;28;20469;-70
2022/11/17 11:35:39;;;;;;;23.90;12.98;;;;;;;;;;5005439;28;20027;-71
2022/11/17 11:38:04;;;;;;;22.27;12.60;;;;;;;;;;5008453;28;20086;-70
2022/11/17 11:40:39;;;;;;;21.57;13.17;;;;;;;;;;5009563;28;20423;-72
2022/11/17 11:43:19;;;;;;;25.38;13.18;;;;;;;;;;5008456;28;20023;-72
2022/11/17 11:45:45;;;;;;;23.33;13.25;;;;;;;;;;5009213;28;20018;-70
2022/11/17 11:48:22;;;;;;;22.03;12.30;;;;;;;;;;4993700;28;20372;-71
2022/11/17 11:50:47;;;;;;;21.80;12.20;;;;;;;;;;5009314;28;20333;-72
2022/11/17 11:53:21;;;;;;;21.53;11.50;;;;;;;;;;5011737;28;20423;-71
2022/11/17 11:55:48;;;;;;;19.42;10.90;;;;;;;;;;5004276;28;20061;-71
2022/11/17 11:58:20;;;;;;;21.58;11.27;;;;;;;;;;5009456;28;20076;-71
2022/11/17 12:00:46;;;;;;;19.42;11.55;;;;;;;;;;4981012;28;20765;-71
2022/11/17 12:03:16;;;;;;;20.33;10.98;;;;;;;;;;5010621;28;20511;-70
2022/11/17 12:05:54;;;;;;;21.27;10.80;;;;;;;;;;5009633;28;20025;-70
2022/11/17 12:08:27;;;;;;;22.48;11.90;;;;;;;;;;5008199;28;20546;-71
2022/11/17 12:10:59;;;;;;;21.67;11.60;;;;;;;8.97;nan;99314.72;5008813;28;20034;-71
2022/11/17 12:13:25;;;;;;;21.33;11.80;;;;;;;;;;5011275;28;20065;-70
2022/11/17 12:15:52;;;;;;;19.92;11.73;;;;;;;;;;5009301;28;20018;-70
2022/11/17 12:18:18;;;;;;;21.65;11.60;;;;;;;;;;5005331;28;20034;-70
2022/11/17 12:20:46;;;;;;;21.33;12.45;;;;;;;;;;5013007;28;20891;-69
2022/11/17 12:23:23;;;;;;;18.67;11.10;;;;;;;;;;5012229;28;20040;-70
2022/11/17 12:25:52;;;;;;;21.05;11.50;;;;;;;;;;5005768;28;20442;-70
2022/11/17 12:28:37;;;;;;;18.38;11.48;;;;;;;;;;5004965;28;20036;-70
2022/11/17 12:31:08;;;;;;;21.80;11.45;;;;;;;;;;5006507;28;20151;-70
2022/11/17 12:33:51;;;;;;;19.85;11.43;;;;;;;;;;5006064;28;20034;-70
2022/11/17 12:38:55;;;;;;;20.35;11.75;;;;;;;;;;5184646;23;20053;-72
2022/11/17 12:41:39;;;;;;;18.67;11.15;;;;;;;;;;5012818;28;20037;-71
2022/11/17 12:44:37;;;;;;;19.55;11.50;;;;;;;;;;5024140;28;20077;-71
2022/11/17 12:47:23;;;;;;;21.10;12.23;;;;;;;;;;5011101;28;20355;-71
2022/11/17 12:50:06;;;;;;;22.38;12.05;;;;;;;;;;5030611;28;20038;-72
2022/11/17 12:53:07;;;;;;;20.40;11.52;;;;;;;;;;5028313;28;20109;-73
2022/11/17 12:55:35;;;;;;;21.75;12.88;;;;;;;;;;4970375;28;20074;-71
2022/11/17 12:58:19;;;;;;;20.88;12.38;;;;;;;;;;4973956;28;20038;-70
2022/11/17 13:01:04;;;;;;;24.40;14.07;;;;;;;;;;4952683;28;20530;-70
2022/11/17 13:03:40;;;;;;;24.40;13.02;;;;;;;;;;4967389;28;20446;-70
2022/11/17 13:06:06;;;;;;;23.15;12.77;;;;;;;;;;4985342;28;20034;-69
2022/11/17 13:08:32;;;;;;;22.88;12.77;;;;;;;;;;4995494;28;20054;-68
2022/11/17 13:11:05;;;;;;;21.17;11.97;;;;;;;;;;4999103;28;20006;-70
2022/11/17 13:13:31;;;;;;;19.05;10.93;;;;;;;;;;4989892;28;20034;-69
2022/11/17 13:15:57;;;;;;;20.02;11.57;;;;;;;;;;4992224;28;20027;-69
2022/11/17 13:18:25;;;;;;;19.05;11.52;;;;;;;;;;4977644;28;20042;-70
2022/11/17 13:20:50;;;;;;;19.08;10.88;;;;;;;;;;4972754;28;20117;-70
2022/11/17 13:23:19;;;;;;;18.60;10.17;;;;;;;;;;4970217;28;20599;-68
2022/11/17 13:25:44;;;;;;;18.67;11.32;;;;;;;;;;4968430;28;20273;-71
2022/11/17 13:28:28;;;;;;;55.13;28.77;;;;;;;;;;4950039;28;20365;-71
2022/11/17 13:30:53;;;;;;;23.85;13.63;;;;;;;;;;5026057;28;20456;-70
2022/11/17 13:33:20;;;;;;;23.20;15.23;;;;;;;;;;5025929;28;20053;-69
2022/11/17 13:35:45;;;;;;;20.50;12.65;;;;;;;;;;5025570;28;20068;-69
2022/11/17 13:38:11;;;;;;;19.37;13.03;;;;;;;;;;5024915;28;20053;-72
2022/11/17 13:40:37;;;;;;;18.40;10.07;;;;;;;;;;5009010;28;20099;-68
2022/11/17 13:43:03;;;;;;;18.90;11.35;;;;;;;;;;5028530;28;20022;-70
2022/11/17 13:45:28;;;;;;;16.70;9.88;;;;;;;;;;5024385;28;20029;-70
2022/11/17 13:47:53;;;;;;;20.10;11.52;;;;;;;;;;5026149;28;20470;-70
2022/11/17 13:50:24;;;;;;;15.70;9.03;;;;;;;;;;5029835;28;20037;-70
2022/11/17 13:52:54;;;;;;;18.13;10.00;;;;;;;;;;5027058;28;20357;-70
2022/11/17 13:55:19;;;;;;;;;;;;;;;;;;5025865;28;20052;-71
2022/11/17 13:57:59;;;;;;;16.02;9.60;;;;;;;;;;5024045;28;19982;-70
2022/11/17 14:00:24;;;;;;;15.60;9.73;;;;;;;;;;5025346;28;20017;-71
2022/11/17 14:02:53;;;;;;;18.90;10.88;;;;;;;;;;5024909;28;20208;-71
2022/11/17 14:05:21;;;;;;;18.92;10.38;;;;;;;;;;5030464;28;20025;-71
2022/11/17 14:07:48;;;;;;;22.95;12.05;;;;;;;;;;5010089;28;20048;-70
2022/11/17 14:10:19;;;;;;;27.63;13.43;;;;;;;;;;5028725;28;20037;-70
2022/11/17 14:12:45;;;;;;;68.68;25.20;;;;;;;;;;5024047;28;20056;-69
2022/11/17 14:15:24;;;;;;;65.85;22.55;;;;;;;;;;5016132;28;20044;-70
2022/11/17 14:17:54;;;;;;;22.02;11.10;;;;;;;;;;5028408;28;20490;-71
2022/11/17 14:20:39;;;;;;;19.48;9.95;;;;;;;;;;5025186;28;20077;-71
2022/11/17 14:23:15;;;;;;;18.27;9.80;;;;;;;;;;5022831;28;20029;-71
2022/11/17 14:25:41;;;;;;;16.90;10.00;;;;;;;;;;5021446;28;20052;-70
2022/11/17 14:28:12;;;;;;;17.25;9.93;;;;;;;;;;5013949;28;20084;-70
2022/11/17 14:30:38;;;;;;;17.17;9.30;;;;;;;;;;5025074;28;20045;-70
2022/11/17 14:33:03;;;;;;;14.48;8.63;;;;;;;;;;5033562;28;20065;-69
2022/11/17 14:35:28;;;;;;;16.90;9.47;;;;;;;;;;5012225;28;20025;-70
2022/11/17 14:37:53;;;;;;;13.70;8.57;;;;;;;;;;5002786;28;20061;-71
2022/11/17 14:40:19;;;;;;;15.43;8.95;;;;;;;;;;5004837;28;20610;-70
2022/11/17 14:42:44;;;;;;;13.93;9.07;;;;;;;;;;5007883;28;20037;-70
2022/11/17 14:45:14;;;;;;;15.30;9.30;;;;;;;;;;5006306;28;20026;-70
2022/11/17 14:47:40;;;;;;;14.57;9.07;;;;;;;;;;5005658;28;20708;-70
2022/11/17 14:50:05;;;;;;;15.93;9.48;;;;;;;;;;5000347;28;20049;-70
2022/11/17 14:52:31;;;;;;;20.05;11.02;;;;;;;;;;5006899;28;20052;-70
2022/11/17 14:54:57;;;;;;;22.50;12.17;;;;;;;;;;4999404;28;20030;-71